createdAt,value
2023-11-02T00:01:12.154Z,9.50
2023-11-02T00:03:42.250Z,9.50
2023-11-02T00:06:25.256Z,9.50
2023-11-02T00:09:04.887Z,9.50
2023-11-02T00:11:58.688Z,9.50
2023-11-02T00:14:30.331Z,9.40
2023-11-02T00:16:58.528Z,9.50
2023-11-02T00:19:39.195Z,9.40
2023-11-02T00:22:11.405Z,9.40
2023-11-02T00:24:45.021Z,9.40
2023-11-02T00:27:12.693Z,9.40
2023-11-02T00:29:40.588Z,9.30
2023-11-02T00:32:12.126Z,9.30
2023-11-02T00:34:41.191Z,9.20
2023-11-02T00:37:09.328Z,9.20
2023-11-02T00:39:39.885Z,9.10
2023-11-02T00:42:07.656Z,9.10
2023-11-02T00:44:35.134Z,9.00
2023-11-02T00:47:05.705Z,8.90
2023-11-02T00:49:33.434Z,8.90
2023-11-02T00:52:02.591Z,8.80
2023-11-02T00:54:54.076Z,8.80
2023-11-02T00:57:25.552Z,8.70
2023-11-02T00:59:53.093Z,8.70
2023-11-02T01:02:21.106Z,8.60
2023-11-02T01:04:53.517Z,8.60
2023-11-02T01:07:21.810Z,8.50
2023-11-02T01:09:50.847Z,8.50
2023-11-02T01:12:39.141Z,8.40
2023-11-02T01:15:27.515Z,8.30
2023-11-02T01:17:54.982Z,8.30
2023-11-02T01:20:40.867Z,8.30
2023-11-02T01:23:10.645Z,8.40
2023-11-02T01:25:44.703Z,8.50
2023-11-02T01:28:20.665Z,8.50
2023-11-02T01:31:19.426Z,8.40
2023-11-02T01:33:55.105Z,8.40
2023-11-02T01:36:31.973Z,8.50
2023-11-02T01:39:14.343Z,8.40
2023-11-02T01:41:53.768Z,8.30
2023-11-02T01:44:23.852Z,8.30
2023-11-02T01:47:04.776Z,8.20
2023-11-02T01:49:38.424Z,8.30
2023-11-02T01:52:24.551Z,8.20
2023-11-02T01:55:23.977Z,8.10
2023-11-02T01:58:17.420Z,8.00
2023-11-02T02:01:17.338Z,8.00
2023-11-02T02:03:50.617Z,8.00
2023-11-02T02:06:42.818Z,7.80
2023-11-02T02:09:47.809Z,7.80
2023-11-02T02:12:45.395Z,7.70
2023-11-02T02:15:27.368Z,7.80
2023-11-02T02:18:15.305Z,7.70
2023-11-02T02:20:48.660Z,7.60
2023-11-02T02:23:46.906Z,7.50
2023-11-02T02:26:50.085Z,7.50
2023-11-02T02:29:39.089Z,7.50
2023-11-02T02:32:36.508Z,7.50
2023-11-02T02:35:34.249Z,7.40
2023-11-02T02:38:19.887Z,7.40
2023-11-02T02:41:00.391Z,7.40
2023-11-02T02:43:30.673Z,7.40
2023-11-02T02:45:58.684Z,7.40
2023-11-02T02:48:28.131Z,7.40
2023-11-02T02:50:59.251Z,7.40
2023-11-02T02:53:31.352Z,7.30
2023-11-02T02:56:09.716Z,7.30
2023-11-02T02:58:47.441Z,7.20
2023-11-02T03:01:19.021Z,7.20
2023-11-02T03:03:49.905Z,7.20
2023-11-02T03:06:19.145Z,7.10
2023-11-02T03:08:48.424Z,7.10
2023-11-02T03:11:21.705Z,7.00
2023-11-02T03:13:51.728Z,7.10
2023-11-02T03:16:22.077Z,7.00
2023-11-02T03:18:49.515Z,7.00
2023-11-02T03:21:17.241Z,7.00
2023-11-02T03:23:47.786Z,7.00
2023-11-02T03:26:36.656Z,6.80
2023-11-02T03:29:20.378Z,6.80
2023-11-02T03:32:14.828Z,6.80
2023-11-02T03:35:08.347Z,6.80
2023-11-02T03:37:45.085Z,6.80
2023-11-02T03:40:53.997Z,6.90
2023-11-02T03:43:24.316Z,6.90
2023-11-02T03:46:07.946Z,6.80
2023-11-02T03:48:49.145Z,6.90
2023-11-02T03:51:23.167Z,6.90
2023-11-02T03:54:08.769Z,7.10
2023-11-02T03:56:47.914Z,7.00
2023-11-02T03:59:21.982Z,6.90
2023-11-02T04:02:05.552Z,6.80
2023-11-02T04:04:48.757Z,6.80
2023-11-02T04:07:23.684Z,6.90
2023-11-02T04:09:56.173Z,7.00
2023-11-02T04:12:36.145Z,7.00
2023-11-02T04:15:05.090Z,7.10
2023-11-02T04:17:32.469Z,7.10
2023-11-02T04:20:02.322Z,7.10
2023-11-02T04:22:29.878Z,7.20
2023-11-02T04:24:57.232Z,7.20
2023-11-02T04:27:24.755Z,7.20
2023-11-02T04:29:52.301Z,7.30
2023-11-02T04:32:19.607Z,7.40
2023-11-02T04:34:47.791Z,7.40
2023-11-02T04:37:16.596Z,7.40
2023-11-02T04:39:45.015Z,7.50
2023-11-02T04:42:13.414Z,7.50
2023-11-02T04:44:41.851Z,7.70
2023-11-02T04:47:09.353Z,7.80
2023-11-02T04:49:37.581Z,8.10
2023-11-02T04:52:05.705Z,8.20
2023-11-02T04:54:34.078Z,8.40
2023-11-02T04:57:02.950Z,8.50
2023-11-02T04:59:37.517Z,8.60
2023-11-02T05:02:05.042Z,8.70
2023-11-02T05:04:32.339Z,8.70
2023-11-02T05:06:59.691Z,8.70
2023-11-02T05:09:27.022Z,8.70
2023-11-02T05:11:55.369Z,8.80
2023-11-02T05:14:22.952Z,8.80
2023-11-02T05:16:50.125Z,8.80
2023-11-02T05:19:18.425Z,8.90
2023-11-02T05:21:45.746Z,9.00
2023-11-02T05:24:15.359Z,9.00
2023-11-02T05:26:42.869Z,8.90
2023-11-02T05:29:10.272Z,9.00
2023-11-02T05:31:40.377Z,9.00
2023-11-02T05:34:07.723Z,9.00
2023-11-02T05:36:35.153Z,9.00
2023-11-02T05:39:02.564Z,9.00
2023-11-02T05:41:29.929Z,9.00
2023-11-02T05:43:57.257Z,9.00
2023-11-02T05:46:24.549Z,9.00
2023-11-02T05:48:51.870Z,9.00
2023-11-02T05:51:19.152Z,9.00
2023-11-02T05:53:46.429Z,8.90
2023-11-02T05:56:16.978Z,8.90
2023-11-02T05:58:44.598Z,8.90
2023-11-02T06:01:11.831Z,8.90
2023-11-02T06:03:39.202Z,8.90
2023-11-02T06:06:08.043Z,8.80
2023-11-02T06:08:35.563Z,8.90
2023-11-02T06:11:04.949Z,8.80
2023-11-02T06:13:34.647Z,8.80
2023-11-02T06:16:02.012Z,8.80
2023-11-02T06:18:29.538Z,8.80
2023-11-02T06:20:56.841Z,8.80
2023-11-02T06:23:24.106Z,8.80
2023-11-02T06:25:51.348Z,8.80
2023-11-02T06:28:20.999Z,8.70
2023-11-02T06:30:48.734Z,8.80
2023-11-02T06:33:28.619Z,8.70
2023-11-02T06:35:58.062Z,8.80
2023-11-02T06:38:25.879Z,8.80
2023-11-02T06:40:53.215Z,8.90
2023-11-02T06:43:20.450Z,8.90
2023-11-02T06:45:47.873Z,9.00
2023-11-02T06:48:15.438Z,9.00
2023-11-02T06:50:45.131Z,9.10
2023-11-02T06:53:12.492Z,9.20
2023-11-02T06:55:41.764Z,9.30
2023-11-02T06:58:10.197Z,9.40
2023-11-02T07:00:37.492Z,9.40
2023-11-02T07:03:05.407Z,9.50
2023-11-02T07:05:33.074Z,9.60
2023-11-02T07:08:00.489Z,9.70
2023-11-02T07:10:28.005Z,9.80
2023-11-02T07:12:55.450Z,9.90
2023-11-02T07:15:24.466Z,10.00
2023-11-02T07:17:52.396Z,10.10
2023-11-02T07:20:19.769Z,10.10
2023-11-02T07:22:47.250Z,10.30
2023-11-02T07:25:14.583Z,10.40
2023-11-02T07:27:42.007Z,10.40
2023-11-02T07:30:11.830Z,10.40
2023-11-02T07:32:39.122Z,10.50
2023-11-02T07:35:07.128Z,10.50
2023-11-02T07:37:34.361Z,10.60
2023-11-02T07:40:02.210Z,10.60
2023-11-02T07:42:29.535Z,10.70
2023-11-02T07:44:56.878Z,10.90
2023-11-02T07:47:24.055Z,10.90
2023-11-02T07:49:51.458Z,11.00
2023-11-02T07:52:18.790Z,11.00
2023-11-02T07:54:46.663Z,11.10
2023-11-02T07:57:15.641Z,11.10
2023-11-02T07:59:43.118Z,11.20
2023-11-02T08:02:11.006Z,11.30
2023-11-02T08:04:38.753Z,11.40
2023-11-02T08:07:09.270Z,11.50
2023-11-02T08:09:38.966Z,11.50
2023-11-02T08:12:10.137Z,11.50
2023-11-02T08:14:38.543Z,11.60
2023-11-02T08:17:06.673Z,11.70
2023-11-02T08:19:34.167Z,11.70
2023-11-02T08:22:01.587Z,11.90
2023-11-02T08:24:29.036Z,11.90
2023-11-02T08:26:56.348Z,12.00
2023-11-02T08:29:24.030Z,12.10
2023-11-02T08:31:51.403Z,12.20
2023-11-02T08:34:18.866Z,12.20
2023-11-02T08:36:46.405Z,12.40
2023-11-02T08:39:13.681Z,12.50
2023-11-02T08:41:41.027Z,12.50
2023-11-02T08:44:08.321Z,12.50
2023-11-02T08:46:38.081Z,12.50
2023-11-02T08:49:06.104Z,12.60
2023-11-02T08:51:34.565Z,12.50
2023-11-02T08:54:05.196Z,12.70
2023-11-02T08:56:32.951Z,12.70
2023-11-02T08:59:00.293Z,12.90
2023-11-02T09:01:28.294Z,13.10
2023-11-02T09:03:57.806Z,13.20
2023-11-02T09:06:27.214Z,13.30
2023-11-02T09:08:59.161Z,13.40
2023-11-02T09:11:30.062Z,13.50
2023-11-02T09:13:59.358Z,13.50
2023-11-02T09:16:28.204Z,13.60
2023-11-02T09:18:59.832Z,13.80
2023-11-02T09:21:30.929Z,13.90
2023-11-02T09:23:58.993Z,13.90
2023-11-02T09:26:26.327Z,14.00
2023-11-02T09:28:53.686Z,13.90
2023-11-02T09:31:21.099Z,14.00
2023-11-02T09:33:48.618Z,14.20
2023-11-02T09:36:16.333Z,14.00
2023-11-02T09:38:44.885Z,14.00
2023-11-02T09:41:13.128Z,14.00
2023-11-02T09:43:42.474Z,14.10
2023-11-02T09:46:10.537Z,14.20
2023-11-02T09:48:37.984Z,14.00
2023-11-02T09:51:07.272Z,13.90
2023-11-02T09:53:34.990Z,14.10
2023-11-02T09:56:03.341Z,14.60
2023-11-02T09:58:31.487Z,14.80
2023-11-02T10:01:01.673Z,14.80
2023-11-02T10:03:29.227Z,15.00
2023-11-02T10:05:58.503Z,14.80
2023-11-02T10:08:25.922Z,14.50
2023-11-02T10:11:13.546Z,14.50
2023-11-02T10:13:41.000Z,14.50
2023-11-02T10:16:08.667Z,14.70
2023-11-02T10:18:36.421Z,15.30
2023-11-02T10:21:09.842Z,15.70
2023-11-02T10:23:51.828Z,16.20
2023-11-02T10:26:20.296Z,16.40
2023-11-02T10:28:48.776Z,19.10
2023-11-02T10:31:21.624Z,19.20
2023-11-02T10:33:52.838Z,18.00
2023-11-02T10:36:21.345Z,17.20
2023-11-02T10:38:48.715Z,19.20
2023-11-02T10:41:18.059Z,18.70
2023-11-02T10:43:47.928Z,17.20
2023-11-02T10:46:17.136Z,16.60
2023-11-02T10:48:45.842Z,16.90
2023-11-02T10:51:20.061Z,17.00
2023-11-02T10:53:56.583Z,16.30
2023-11-02T10:56:27.784Z,16.40
2023-11-02T10:58:56.182Z,17.40
2023-11-02T11:01:25.077Z,18.90
2023-11-02T11:03:54.760Z,17.80
2023-11-02T11:06:25.102Z,19.40
2023-11-02T11:08:55.772Z,20.90
2023-11-02T11:11:28.782Z,21.40
2023-11-02T11:13:57.573Z,18.40
2023-11-02T11:16:27.410Z,20.30
2023-11-02T11:18:55.501Z,21.20
2023-11-02T11:21:23.962Z,19.20
2023-11-02T11:23:52.244Z,19.00
2023-11-02T11:26:20.748Z,20.50
2023-11-02T11:28:50.553Z,20.80
2023-11-02T11:31:58.742Z,21.80
2023-11-02T11:34:27.512Z,23.80
2023-11-02T11:37:32.757Z,22.60
2023-11-02T11:40:00.320Z,22.80
2023-11-02T11:42:53.984Z,23.80
2023-11-02T11:45:29.574Z,22.60
2023-11-02T11:47:58.105Z,21.80
2023-11-02T11:50:45.928Z,20.80
2023-11-02T11:53:20.686Z,22.30
2023-11-02T11:55:52.804Z,22.30
2023-11-02T11:58:46.358Z,20.60
2023-11-02T12:01:15.105Z,19.80
2023-11-02T12:03:47.213Z,19.00
2023-11-02T12:06:15.467Z,18.50
2023-11-02T12:08:51.578Z,18.50
2023-11-02T12:11:27.022Z,19.60
2023-11-02T12:13:59.034Z,18.50
2023-11-02T12:16:34.328Z,18.30
2023-11-02T12:19:02.944Z,17.80
2023-11-02T12:21:30.640Z,18.20
2023-11-02T12:23:58.887Z,17.80
2023-11-02T12:26:28.771Z,17.80
2023-11-02T12:28:59.400Z,18.10
2023-11-02T12:31:32.849Z,18.40
2023-11-02T12:34:07.092Z,18.10
2023-11-02T12:36:34.630Z,18.00
2023-11-02T12:39:02.013Z,17.90
2023-11-02T12:41:32.226Z,17.90
2023-11-02T12:44:11.829Z,17.70
2023-11-02T12:46:45.850Z,17.50
2023-11-02T12:49:20.279Z,17.50
2023-11-02T12:51:51.387Z,17.50
2023-11-02T12:54:19.650Z,17.30
2023-11-02T12:56:51.216Z,17.20
2023-11-02T12:59:18.793Z,17.20
2023-11-02T13:02:01.091Z,17.20
2023-11-02T13:04:57.508Z,17.10
2023-11-02T13:07:26.606Z,17.10
2023-11-02T13:10:11.960Z,17.00
2023-11-02T13:12:41.344Z,17.00
2023-11-02T13:15:11.328Z,16.90
2023-11-02T13:17:46.941Z,16.90
2023-11-02T13:20:17.042Z,16.80
2023-11-02T13:22:49.863Z,16.80
2023-11-02T13:25:17.952Z,16.80
2023-11-02T13:27:49.533Z,16.70
2023-11-02T13:30:17.924Z,16.70
2023-11-02T13:32:45.934Z,16.70
2023-11-02T13:35:13.851Z,16.70
2023-11-02T13:37:42.436Z,16.70
2023-11-02T13:40:14.677Z,16.70
2023-11-02T13:42:47.372Z,16.70
2023-11-02T13:45:16.111Z,16.70
2023-11-02T13:47:45.930Z,16.60
2023-11-02T13:50:15.423Z,16.60
2023-11-02T13:52:44.044Z,16.50
2023-11-02T13:55:11.936Z,16.50
2023-11-02T13:57:40.452Z,16.40
2023-11-02T14:00:12.800Z,16.30
2023-11-02T14:02:43.415Z,16.40
2023-11-02T14:05:12.280Z,16.20
2023-11-02T14:07:39.910Z,16.10
2023-11-02T14:10:08.689Z,16.10
2023-11-02T14:12:36.089Z,16.10
2023-11-02T14:15:09.268Z,16.10
2023-11-02T14:17:37.950Z,16.10
2023-11-02T14:20:08.563Z,16.20
2023-11-02T14:22:36.898Z,16.10
2023-11-02T14:25:06.217Z,16.20
2023-11-02T14:27:33.539Z,16.10
2023-11-02T14:30:03.584Z,16.10
2023-11-02T14:32:31.673Z,15.90
2023-11-02T14:34:59.068Z,15.90
2023-11-02T14:37:26.342Z,15.90
2023-11-02T14:39:53.835Z,15.70
2023-11-02T14:42:24.170Z,15.50
2023-11-02T14:44:52.816Z,15.40
2023-11-02T14:47:22.532Z,15.30
2023-11-02T14:49:49.837Z,15.20
2023-11-02T14:52:17.325Z,15.10
2023-11-02T14:54:52.663Z,15.10
2023-11-02T14:57:23.768Z,15.20
2023-11-02T14:59:51.344Z,15.10
2023-11-02T15:02:21.431Z,15.00
2023-11-02T15:04:50.978Z,15.00
2023-11-02T15:07:19.662Z,15.00
2023-11-02T15:09:50.006Z,14.90
2023-11-02T15:12:18.892Z,14.90
2023-11-02T15:14:46.553Z,14.80
2023-11-02T15:17:13.980Z,14.80
2023-11-02T15:19:43.157Z,14.80
2023-11-02T15:22:13.055Z,14.70
2023-11-02T15:24:41.400Z,14.90
2023-11-02T15:27:08.887Z,14.90
2023-11-02T15:29:36.460Z,14.70
2023-11-02T15:32:04.764Z,14.70
2023-11-02T15:34:32.814Z,14.70
2023-11-02T15:37:00.745Z,14.80
2023-11-02T15:39:30.970Z,14.80
2023-11-02T15:41:59.995Z,14.90
2023-11-02T15:44:27.197Z,14.70
2023-11-02T15:46:55.746Z,14.90
2023-11-02T15:49:23.918Z,14.70
2023-11-02T15:51:51.293Z,14.80
2023-11-02T15:54:19.065Z,14.70
2023-11-02T15:56:46.413Z,14.70
2023-11-02T15:59:15.313Z,14.80
2023-11-02T16:01:42.732Z,14.80
2023-11-02T16:04:10.272Z,14.80
2023-11-02T16:06:38.249Z,14.90
2023-11-02T16:09:05.904Z,14.90
2023-11-02T16:11:33.658Z,15.00
2023-11-02T16:14:04.674Z,15.10
2023-11-02T16:16:32.543Z,15.10
2023-11-02T16:19:00.268Z,15.00
2023-11-02T16:21:29.677Z,15.00
2023-11-02T16:23:57.818Z,15.00
2023-11-02T16:26:26.610Z,15.10
2023-11-02T16:28:55.578Z,15.20
2023-11-02T16:31:25.151Z,15.20
2023-11-02T16:33:54.152Z,15.10
2023-11-02T16:36:47.238Z,15.00
2023-11-02T16:39:14.876Z,15.00
2023-11-02T16:41:46.060Z,15.00
2023-11-02T16:44:16.186Z,15.00
2023-11-02T16:46:44.974Z,15.00
2023-11-02T16:49:13.672Z,15.00
2023-11-02T16:51:43.081Z,15.00
2023-11-02T16:54:11.792Z,15.00
2023-11-02T16:56:43.535Z,14.90
2023-11-02T16:59:18.185Z,15.10
2023-11-02T17:01:45.759Z,14.90
2023-11-02T17:04:13.130Z,15.00
2023-11-02T17:06:40.582Z,15.00
2023-11-02T17:09:10.476Z,15.10
2023-11-02T17:11:39.025Z,15.10
2023-11-02T17:14:06.976Z,15.00
2023-11-02T17:16:34.318Z,15.00
2023-11-02T17:19:01.891Z,15.00
2023-11-02T17:21:29.794Z,14.90
2023-11-02T17:23:57.928Z,14.80
2023-11-02T17:26:28.254Z,14.90
2023-11-02T17:28:55.736Z,14.80
2023-11-02T17:31:23.203Z,14.80
2023-11-02T17:33:51.395Z,14.80
2023-11-02T17:36:18.930Z,14.90
2023-11-02T17:38:46.222Z,14.80
2023-11-02T17:41:13.928Z,14.90
2023-11-02T17:43:43.175Z,14.90
2023-11-02T17:46:12.206Z,14.80
2023-11-02T17:48:39.835Z,14.80
2023-11-02T17:51:07.232Z,14.80
2023-11-02T17:53:34.734Z,14.70
2023-11-02T17:56:02.077Z,14.70
2023-11-02T17:58:30.007Z,14.60
2023-11-02T18:00:59.180Z,14.60
2023-11-02T18:03:28.901Z,14.50
2023-11-02T18:05:56.425Z,14.50
2023-11-02T18:08:23.916Z,14.40
2023-11-02T18:10:52.457Z,14.20
2023-11-02T18:13:19.881Z,14.10
2023-11-02T18:15:51.158Z,14.00
2023-11-02T18:18:19.528Z,14.30
2023-11-02T18:20:47.283Z,14.30
2023-11-02T18:23:15.181Z,14.20
2023-11-02T18:25:43.341Z,14.30
2023-11-02T18:28:10.831Z,14.30
2023-11-02T18:30:38.410Z,14.30
2023-11-02T18:33:06.130Z,14.30
2023-11-02T18:35:33.472Z,14.40
2023-11-02T18:38:00.851Z,14.30
2023-11-02T18:40:28.182Z,14.40
2023-11-02T18:42:55.664Z,14.50
2023-11-02T18:45:23.264Z,14.40
2023-11-02T18:47:50.690Z,14.50
2023-11-02T18:50:17.951Z,14.50
2023-11-02T18:52:46.072Z,14.50
2023-11-02T18:55:13.532Z,14.30
2023-11-02T18:57:41.029Z,14.30
2023-11-02T19:00:09.944Z,14.30
2023-11-02T19:02:40.578Z,14.20
2023-11-02T19:05:09.280Z,14.00
2023-11-02T19:07:36.717Z,13.80
2023-11-02T19:10:04.561Z,13.70
2023-11-02T19:12:32.020Z,13.50
2023-11-02T19:14:59.242Z,13.40
2023-11-02T19:17:28.641Z,13.20
2023-11-02T19:19:56.532Z,13.20
2023-11-02T19:22:23.891Z,13.10
2023-11-02T19:24:51.251Z,13.10
2023-11-02T19:27:20.298Z,13.10
2023-11-02T19:29:49.186Z,13.10
2023-11-02T19:32:16.700Z,13.20
2023-11-02T19:34:44.089Z,13.10
2023-11-02T19:37:11.546Z,13.10
2023-11-02T19:39:39.301Z,13.00
2023-11-02T19:42:06.789Z,13.00
2023-11-02T19:44:34.138Z,12.90
2023-11-02T19:47:01.511Z,12.90
2023-11-02T19:49:28.855Z,12.90
2023-11-02T19:51:56.415Z,12.90
2023-11-02T19:54:23.760Z,13.00
2023-11-02T19:56:51.405Z,13.00
2023-11-02T19:59:19.121Z,13.00
2023-11-02T20:01:46.383Z,13.00
2023-11-02T20:04:13.711Z,13.00
2023-11-02T20:06:41.440Z,13.00
2023-11-02T20:09:14.163Z,13.00
2023-11-02T20:11:42.298Z,13.10
2023-11-02T20:14:11.167Z,13.00
2023-11-02T20:16:38.559Z,13.10
2023-11-02T20:19:06.015Z,13.10
2023-11-02T20:21:36.179Z,13.20
2023-11-02T20:24:05.874Z,13.20
2023-11-02T20:26:33.477Z,13.30
2023-11-02T20:29:01.017Z,13.30
2023-11-02T20:31:28.428Z,13.30
2023-11-02T20:33:55.881Z,13.50
2023-11-02T20:36:23.493Z,13.50
2023-11-02T20:38:50.765Z,13.60
2023-11-02T20:41:18.719Z,13.70
2023-11-02T20:43:47.007Z,13.60
2023-11-02T20:46:14.455Z,13.60
2023-11-02T20:48:41.898Z,13.70
2023-11-02T20:51:14.439Z,13.80
2023-11-02T20:53:41.864Z,13.80
2023-11-02T20:56:09.195Z,13.70
2023-11-02T20:58:37.356Z,13.60
2023-11-02T21:01:05.463Z,13.80
2023-11-02T21:03:34.545Z,13.70
2023-11-02T21:06:04.902Z,13.90
2023-11-02T21:08:34.443Z,13.80
2023-11-02T21:11:02.715Z,14.00
2023-11-02T21:13:30.048Z,13.90
2023-11-02T21:15:57.641Z,14.00
2023-11-02T21:18:26.048Z,13.90
2023-11-02T21:20:54.386Z,14.10
2023-11-02T21:23:21.800Z,14.00
2023-11-02T21:25:49.663Z,14.00
2023-11-02T21:28:18.686Z,14.10
2023-11-02T21:30:46.138Z,14.10
2023-11-02T21:33:13.650Z,14.20
2023-11-02T21:35:40.920Z,14.10
2023-11-02T21:38:08.290Z,14.00
2023-11-02T21:40:35.701Z,14.00
2023-11-02T21:43:03.445Z,14.10
2023-11-02T21:45:31.538Z,14.20
2023-11-02T21:48:01.600Z,14.20
2023-11-02T21:50:28.984Z,14.10
2023-11-02T21:52:56.621Z,14.10
2023-11-02T21:55:23.897Z,14.00
2023-11-02T21:57:51.216Z,13.80
2023-11-02T22:00:19.128Z,13.80
2023-11-02T22:02:46.560Z,13.80
2023-11-02T22:05:14.085Z,13.70
2023-11-02T22:07:41.560Z,13.60
2023-11-02T22:10:09.349Z,13.60
2023-11-02T22:12:37.051Z,13.40
2023-11-02T22:15:04.630Z,13.40
2023-11-02T22:17:32.038Z,13.50
2023-11-02T22:19:59.544Z,13.50
2023-11-02T22:22:29.384Z,13.60
2023-11-02T22:24:56.942Z,13.80
2023-11-02T22:27:24.254Z,13.90
2023-11-02T22:29:51.574Z,14.30
2023-11-02T22:32:19.191Z,14.20
2023-11-02T22:34:46.644Z,14.10
2023-11-02T22:37:14.957Z,13.90
2023-11-02T22:39:42.352Z,13.90
2023-11-02T22:42:09.651Z,13.90
2023-11-02T22:44:37.027Z,13.80
2023-11-02T22:47:04.573Z,13.80
2023-11-02T22:49:32.098Z,13.80
2023-11-02T22:51:59.473Z,13.70
2023-11-02T22:54:26.800Z,13.70
2023-11-02T22:56:54.722Z,13.70
2023-11-02T22:59:22.073Z,13.70
2023-11-02T23:01:55.842Z,13.70
2023-11-02T23:04:25.005Z,13.70
2023-11-02T23:06:52.607Z,13.70
2023-11-02T23:09:20.393Z,13.70
2023-11-02T23:11:47.742Z,13.70
2023-11-02T23:14:14.981Z,13.80
2023-11-02T23:16:46.195Z,13.80
2023-11-02T23:19:14.761Z,13.80
2023-11-02T23:21:42.047Z,13.70
2023-11-02T23:24:10.381Z,13.50
2023-11-02T23:26:37.681Z,13.20
2023-11-02T23:29:08.412Z,13.00
2023-11-02T23:31:37.159Z,12.80
2023-11-02T23:34:04.621Z,12.50
2023-11-02T23:36:35.731Z,11.90
2023-11-02T23:39:03.660Z,11.60
2023-11-02T23:41:38.800Z,11.40
2023-11-02T23:44:06.588Z,11.30
2023-11-02T23:46:34.009Z,11.30
2023-11-02T23:49:01.487Z,11.20
2023-11-02T23:51:28.818Z,11.10
2023-11-02T23:53:56.739Z,11.10
2023-11-02T23:56:23.971Z,11.10
2023-11-02T23:58:51.234Z,11.10
